Time;durP1;ratioP1;P1;durP2;ratioP2;P2;SDS_P1;SDS_P2;PMS_P1;PMS_P2;Temp;Humidity;BMP_temperature;BMP_pressure;BME280_temperature;BME280_humidity;BME280_pressure;Samples;Min_cycle;Max_cycle;Signal;HPM_P1;HPM_P2
2022/04/22 00:01:29;;;;;;;1.02;1.02;;;;;;;;;;4943825;28;20928;-81
2022/04/22 00:03:55;;;;;;;0.32;0.32;;;;;;;;;;4947362;28;20035;-81
2022/04/22 00:06:21;;;;;;;1.10;1.10;;;;;;;;;;4949711;28;20042;-81
2022/04/22 00:08:47;;;;;;;1.23;1.13;;;;;;;;;;4945713;28;20031;-81
2022/04/22 00:11:32;;;;;;;0.43;0.43;;;;;;;;;;4942321;28;20125;-81
2022/04/22 00:13:59;;;;;;;1.45;1.38;;;;;;;;;;4945434;28;20027;-80
2022/04/22 00:16:25;;;;;;;;;;;;;;;;;;4947767;28;20129;-81
2022/04/22 00:18:51;;;;;;;0.68;0.68;;;;;;;;;;4940755;28;20014;-81
2022/04/22 00:21:17;;;;;;;0.50;0.50;;;;;;;;;;4942670;29;20082;-81
2022/04/22 00:23:43;;;;;;;0.63;0.63;;;;;;;;;;4942733;28;20424;-81
2022/04/22 00:26:09;;;;;;;0.57;0.57;;;;;;;;;;4943790;28;20035;-81
2022/04/22 00:28:35;;;;;;;0.77;0.77;;;;;;;;;;4942927;28;20043;-80
2022/04/22 00:31:01;;;;;;;0.30;0.30;;;;;;;;;;4941873;29;20028;-81
2022/04/22 00:33:27;;;;;;;1.48;1.33;;;;;;;;;;4943012;28;20124;-82
2022/04/22 00:35:54;;;;;;;0.90;0.75;;;;;;;;;;4941664;28;20548;-80
2022/04/22 00:38:20;;;;;;;0.20;0.20;;;;;;;;;;4943967;28;20078;-80
2022/04/22 00:40:46;;;;;;;0.60;0.60;;;;;;;;;;4944750;28;20059;-81
2022/04/22 00:43:21;;;;;;;0.20;0.20;;;;;;;;;;4946366;28;20527;-81
2022/04/22 00:45:47;;;;;;;1.13;1.13;;;;;;;;;;4946093;28;20034;-82
2022/04/22 00:48:14;;;;;;;3.10;1.17;;;;;;;;;;4954218;28;20117;-80
2022/04/22 00:50:40;;;;;;;0.57;0.57;;;;;;;;;;4941707;28;20027;-80
2022/04/22 00:53:07;;;;;;;1.45;1.35;;;;;;;;;;4945302;28;20024;-82
2022/04/22 00:55:34;;;;;;;0.52;0.52;;;;;;;;;;4942099;28;20122;-81
2022/04/22 00:58:00;;;;;;;0.77;0.50;;;;;;;;;;4941852;29;20039;-81
2022/04/22 01:00:26;;;;;;;0.52;0.52;;;;;;;;;;4944547;28;20154;-81
2022/04/22 01:02:52;;;;;;;0.60;0.60;;;;;;;;;;4954131;28;20028;-81
2022/04/22 01:10:48;;;;;;;0.50;0.50;;;;;;;;;;4951029;28;20045;-82
2022/04/22 01:13:15;;;;;;;2.00;0.97;;;;;;;;;;4945760;28;20134;-81
2022/04/22 01:15:42;;;;;;;0.57;0.57;;;;;;;;;;4949730;28;20516;-82
2022/04/22 01:18:09;;;;;;;2.70;1.80;;;;;;;;;;4943620;28;20074;-82
2022/04/22 01:20:35;;;;;;;0.32;0.22;;;;;;;;;;4949709;28;20027;-81
2022/04/22 01:23:01;;;;;;;2.40;1.30;;;;;;;;;;4947648;28;20031;-82
2022/04/22 01:25:27;;;;;;;1.70;1.40;;;;;;;;;;4941617;29;20456;-82
2022/04/22 01:27:54;;;;;;;0.88;0.70;;;;;;;;;;4946041;28;20155;-81
2022/04/22 01:30:21;;;;;;;1.70;1.30;;;;;;;;;;4939475;28;20036;-81
2022/04/22 01:32:51;;;;;;;1.05;0.90;;;;;;;;;;4941609;28;20035;-82
2022/04/22 01:35:20;;;;;;;0.88;0.85;;;;;;;;;;4950501;28;20118;-81
2022/04/22 01:37:46;;;;;;;0.52;0.52;;;;;;;;;;4952499;28;20374;-82
2022/04/22 01:40:12;;;;;;;0.90;0.90;;;;;;;;;;4948661;28;20388;-81
2022/04/22 01:42:39;;;;;;;1.60;1.50;;;;;;;;;;4947494;28;20484;-82
2022/04/22 01:45:06;;;;;;;1.60;1.43;;;;;;;;;;4942799;28;20031;-81
2022/04/22 01:47:32;;;;;;;1.10;0.55;;;;;;;;;;4944250;28;20287;-81
2022/04/22 01:49:58;;;;;;;0.30;0.30;;;;;;;;;;4938605;28;20775;-82
2022/04/22 01:52:25;;;;;;;0.50;0.50;;;;;;;;;;4942083;28;20043;-82
2022/04/22 01:54:52;;;;;;;0.60;0.60;;;;;;;;;;4938566;29;20803;-81
2022/04/22 01:57:19;;;;;;;0.50;0.50;;;;;;;;;;4941653;28;20043;-82
2022/04/22 01:59:46;;;;;;;1.20;1.10;;;;;;;;;;4939944;29;20583;-82
2022/04/22 02:02:13;;;;;;;0.65;0.65;;;;;;;;;;4940480;28;20058;-82
2022/04/22 02:04:39;;;;;;;0.90;0.90;;;;;;;;;;4940414;29;20031;-82
2022/04/22 02:07:06;;;;;;;1.52;1.30;;;;;;;;;;4941281;28;20686;-82
2022/04/22 02:09:32;;;;;;;0.47;0.30;;;;;;;;;;4944846;28;20035;-82
2022/04/22 02:11:58;;;;;;;0.40;0.40;;;;;;;;;;4939941;29;20522;-82
2022/04/22 02:14:25;;;;;;;0.95;0.95;;;;;;;;;;4941888;28;20031;-81
2022/04/22 02:16:51;;;;;;;0.55;0.55;;;;;;;;;;4942569;28;20081;-83
2022/04/22 02:19:18;;;;;;;0.20;0.20;;;;;;;;;;4941063;28;20051;-82
2022/04/22 02:21:44;;;;;;;1.23;1.13;;;;;;;;;;4941669;28;20027;-82
2022/04/22 02:24:10;;;;;;;0.38;0.38;;;;;;;;;;4939950;28;20046;-82
2022/04/22 02:29:21;;;;;;;0.60;0.60;;;;;;;;;;4946829;28;20718;-82
2022/04/22 02:31:48;;;;;;;3.88;1.50;;;;;;;;;;4941623;28;20035;-81
2022/04/22 02:34:14;;;;;;;0.32;0.32;;;;;;;;;;4941329;28;20031;-81
2022/04/22 02:36:42;;;;;;;0.40;0.40;;;;;;;;;;4944223;28;20063;-81
2022/04/22 02:39:08;;;;;;;1.08;0.90;;;;;;;;;;4938687;28;20077;-81
2022/04/22 02:47:04;;;;;;;0.57;0.57;;;;;;;;;;4942501;28;20113;-82
2022/04/22 02:49:30;;;;;;;0.50;0.50;;;;;;;;;;4942520;28;20892;-81
2022/04/22 02:51:56;;;;;;;0.40;0.40;;;;;;;;;;4937540;29;20660;-82
2022/04/22 02:54:22;;;;;;;0.70;0.70;;;;;;;;;;4942326;28;20275;-81
2022/04/22 02:56:50;;;;;;;1.45;1.35;;;;;;;;;;4950807;28;20749;-81
2022/04/22 02:59:17;;;;;;;0.95;0.95;;;;;;;;;;4944729;28;20874;-81
2022/04/22 03:01:43;;;;;;;0.68;0.68;;;;;;;;;;4948702;28;20027;-81
2022/04/22 03:04:10;;;;;;;4.32;1.17;;;;;;;;;;4947112;28;20064;-80
2022/04/22 03:06:36;;;;;;;2.10;1.58;;;;;;;;;;4949204;28;20070;-81
2022/04/22 03:09:02;;;;;;;0.63;0.63;;;;;;;;;;4959138;28;20039;-81
2022/04/22 03:11:29;;;;;;;0.43;0.43;;;;;;;;;;4950721;28;20032;-82
2022/04/22 03:13:55;;;;;;;0.60;0.60;;;;;;;;;;4947156;28;20436;-82
2022/04/22 03:16:24;;;;;;;0.37;0.37;;;;;;;;;;4948815;28;20035;-81
2022/04/22 03:18:50;;;;;;;0.15;0.15;;;;;;;;;;4943881;28;20311;-81
2022/04/22 03:21:16;;;;;;;0.60;0.60;;;;;;;;;;4944680;28;20024;-81
2022/04/22 03:23:42;;;;;;;0.75;0.73;;;;;;;;;;4948158;28;20282;-82
2022/04/22 03:26:08;;;;;;;0.53;0.53;;;;;;;;;;4954204;28;20027;-81
2022/04/22 03:28:34;;;;;;;0.52;0.38;;;;;;;;;;4951983;28;20321;-81
2022/04/22 03:31:01;;;;;;;2.17;0.75;;;;;;;;;;4954596;28;20155;-82
2022/04/22 03:33:27;;;;;;;0.75;0.75;;;;;;;;;;4946178;28;20027;-82
2022/04/22 03:35:53;;;;;;;1.40;1.30;;;;;;;;;;4975567;28;20059;-81
2022/04/22 03:38:19;;;;;;;0.53;0.53;;;;;;;;;;4953048;28;20464;-81
2022/04/22 03:40:46;;;;;;;2.63;2.38;;;;;;;;;;4946641;28;20038;-81
2022/04/22 03:43:12;;;;;;;6.22;1.77;;;;;;;;;;4946761;28;20557;-82
2022/04/22 03:45:38;;;;;;;1.98;1.02;;;;;;;;;;4948458;28;20039;-82
2022/04/22 03:48:08;;;;;;;1.20;1.10;;;;;;;;;;4952320;28;20026;-82
2022/04/22 03:50:36;;;;;;;0.47;0.45;;;;;;;;;;4945544;28;20067;-81
2022/04/22 03:53:02;;;;;;;0.82;0.75;;;;;;;;;;4949260;28;20082;-82
2022/04/22 03:55:28;;;;;;;3.50;1.95;;;;;;;;;;4946965;28;20077;-82
2022/04/22 03:58:13;;;;;;;3.00;0.85;;;;;;;;;;4946285;28;20098;-82
2022/04/22 04:00:42;;;;;;;0.82;0.82;;;;;;;;;;4948763;28;20174;-82
2022/04/22 04:03:09;;;;;;;0.70;0.70;;;;;;;;;;4945254;28;20035;-83
2022/04/22 04:05:35;;;;;;;1.45;1.35;;;;;;;;;;4946989;28;20031;-82
2022/04/22 04:08:01;;;;;;;0.38;0.38;;;;;;;;;;4945408;29;20536;-81
2022/04/22 04:16:00;;;;;;;0.82;0.40;;;;;;;;;;4946421;28;20085;-82
2022/04/22 04:18:27;;;;;;;0.50;0.50;;;;;;;;;;4946584;28;20058;-82
2022/04/22 04:23:38;;;;;;;0.73;0.55;;;;;;;;;;4943257;29;20054;-82
2022/04/22 04:26:06;;;;;;;0.97;0.97;;;;;;;;;;4942537;28;20582;-83
2022/04/22 04:28:33;;;;;;;0.63;0.63;;;;;;;;;;4943805;29;20794;-82
2022/04/22 04:30:59;;;;;;;0.30;0.30;;;;;;;;;;4943888;28;20818;-83
2022/04/22 04:33:25;;;;;;;3.25;1.02;;;;;;;;;;4941236;29;20027;-81
2022/04/22 04:35:51;;;;;;;2.07;1.33;;;;;;;;;;4941809;28;20035;-82
2022/04/22 04:38:18;;;;;;;0.20;0.20;;;;;;;;;;4942969;28;20295;-82
2022/04/22 04:40:47;;;;;;;1.85;1.27;;;;;;;;;;4942597;29;20106;-82
2022/04/22 04:43:13;;;;;;;0.57;0.57;;;;;;;;;;4942674;28;20043;-82
2022/04/22 04:45:39;;;;;;;0.90;0.90;;;;;;;;;;4943407;28;20409;-82
2022/04/22 04:48:05;;;;;;;0.90;0.90;;;;;;;;;;4940214;28;21117;-81
2022/04/22 04:50:31;;;;;;;1.73;1.55;;;;;;;;;;4945087;28;20027;-81
2022/04/22 04:52:57;;;;;;;2.10;1.07;;;;;;;;;;4945825;28;20563;-82
2022/04/22 04:55:24;;;;;;;0.70;0.70;;;;;;;;;;4939699;29;20129;-84
2022/04/22 04:57:50;;;;;;;0.88;0.77;;;;;;;;;;4946392;28;20069;-83
2022/04/22 05:00:20;;;;;;;0.90;0.73;;;;;;;;;;4942178;28;20097;-82
2022/04/22 05:02:46;;;;;;;1.40;1.30;;;;;;;;;;4942022;28;20299;-83
2022/04/22 05:05:12;;;;;;;1.95;0.73;;;;;;;;;;4943434;28;20031;-83
2022/04/22 05:07:49;;;;;;;1.42;0.77;;;;;;;;;;4942342;28;20074;-83
2022/04/22 05:10:16;;;;;;;0.28;0.28;;;;;;;;;;4941992;28;20042;-82
2022/04/22 05:12:42;;;;;;;;;;;;;;;;;;4942063;28;20122;-84
2022/04/22 05:15:08;;;;;;;1.05;0.80;;;;;;;;;;4943941;28;19918;-83
2022/04/22 05:17:35;;;;;;;0.75;0.75;;;;;;;;;;4942053;28;20047;-82
2022/04/22 05:20:01;;;;;;;3.67;1.67;;;;;;;;;;4943183;28;20109;-83
2022/04/22 05:22:27;;;;;;;1.48;1.40;;;;;;;;;;4935998;28;20038;-82
2022/04/22 05:24:53;;;;;;;0.97;0.40;;;;;;;;;;4939110;28;20082;-83
2022/04/22 05:27:19;;;;;;;2.40;1.83;;;;;;;;;;4928758;28;20046;-83
2022/04/22 05:32:39;;;;;;;0.57;0.57;;;;;;;;;;4943955;28;20551;-80
2022/04/22 05:35:09;;;;;;;0.90;0.90;;;;;;;;;;4938076;28;20031;-83
2022/04/22 05:37:53;;;;;;;0.98;0.77;;;;;;;;;;4936653;28;20144;-82
2022/04/22 05:40:20;;;;;;;0.50;0.50;;;;;;;;;;4939157;28;20026;-83
2022/04/22 05:42:46;;;;;;;3.53;1.83;;;;;;;;;;4939662;29;20055;-84
2022/04/22 05:45:13;;;;;;;1.00;1.00;;;;;;;;;;4940552;28;20030;-83
2022/04/22 05:47:39;;;;;;;;;;;;;;;;;;4946750;28;20066;-82
2022/04/22 05:50:06;;;;;;;0.22;0.22;;;;;;;;;;4942145;28;20485;-83
2022/04/22 05:52:32;;;;;;;;;;;;;;;;;;4932346;28;20050;-82
2022/04/22 05:55:02;;;;;;;1.95;1.60;;;;;;;;;;4940629;28;19998;-81
2022/04/22 05:57:28;;;;;;;1.13;1.00;;;;;;;;;;4943891;28;20110;-82
2022/04/22 05:59:54;;;;;;;2.30;2.17;;;;;;;;;;4945667;28;20162;-81
2022/04/22 06:02:20;;;;;;;0.73;0.73;;;;;;;;;;4940352;29;20629;-81
2022/04/22 06:04:46;;;;;;;1.37;1.30;;;;;;;;;;4939394;28;20085;-81
2022/04/22 06:07:13;;;;;;;1.40;1.10;;;;;;;;;;4943779;29;20507;-82
2022/04/22 06:12:24;;;;;;;1.27;1.27;;;;;;;;;;4942460;29;20071;-82
2022/04/22 06:14:50;;;;;;;0.73;0.73;;;;;;;;;;4947051;28;20027;-81
2022/04/22 06:17:16;;;;;;;1.33;1.23;;;;;;;;;;4945806;28;20043;-83
2022/04/22 06:19:42;;;;;;;1.00;1.00;;;;;;;;;;4941718;28;20071;-81
2022/04/22 06:22:08;;;;;;;1.08;1.00;;;;;;;;;;4938539;28;20030;-82
2022/04/22 06:24:34;;;;;;;1.03;1.03;;;;;;;;;;4943806;28;20019;-81
2022/04/22 06:27:00;;;;;;;1.27;1.27;;;;;;;;;;4943393;29;20082;-82
2022/04/22 06:29:26;;;;;;;8.13;3.83;;;;;;;;;;4941270;28;20555;-82
2022/04/22 06:31:53;;;;;;;2.73;1.13;;;;;;;;;;4940728;28;20027;-82
2022/04/22 06:34:20;;;;;;;1.55;1.45;;;;;;;;;;4938399;28;20063;-82
2022/04/22 06:36:46;;;;;;;1.38;1.35;;;;;;;;;;4941270;28;20023;-81
2022/04/22 06:39:13;;;;;;;1.77;1.42;;;;;;;;;;4939029;28;20143;-81
2022/04/22 06:47:09;;;;;;;1.67;1.52;;;;;;;;;;4940128;29;20045;-81
2022/04/22 06:49:35;;;;;;;2.55;1.60;;;;;;;;;;4939581;29;20604;-83
2022/04/22 06:52:01;;;;;;;2.33;2.13;;;;;;;;;;4942498;28;20043;-83
2022/04/22 06:54:27;;;;;;;1.50;1.40;;;;;;;;;;4938433;28;20648;-82
2022/04/22 06:56:53;;;;;;;1.50;1.40;;;;;;;;;;4943860;28;20035;-82
2022/04/22 06:59:22;;;;;;;1.13;0.70;;;;;;;;;;4941316;28;20039;-83
2022/04/22 07:01:48;;;;;;;1.00;1.00;;;;;;;;;;4938317;28;20195;-83
2022/04/22 07:04:14;;;;;;;1.02;1.02;;;;;;;;;;4942071;28;20027;-83
2022/04/22 07:06:41;;;;;;;1.33;1.23;;;;;;;;;;4937753;28;20536;-82
2022/04/22 07:09:08;;;;;;;1.65;1.10;;;;;;;;;;4934574;28;20039;-82
2022/04/22 07:11:35;;;;;;;1.08;0.73;;;;;;;;;;4944191;28;20098;-82
2022/04/22 07:14:01;;;;;;;1.23;1.23;;;;;;;;;;4944073;28;20039;-84
2022/04/22 07:16:28;;;;;;;1.35;1.25;;;;;;;;;;4943325;28;20094;-81
2022/04/22 07:18:55;;;;;;;0.75;0.75;;;;;;;;;;4956074;28;20057;-82
2022/04/22 07:21:21;;;;;;;0.80;0.80;;;;;;;;;;4936532;28;20753;-83
2022/04/22 07:23:47;;;;;;;0.40;0.40;;;;;;;;;;4930360;28;20034;-82
2022/04/22 07:26:16;;;;;;;2.13;1.70;;;;;;;;;;4943858;28;20046;-84
2022/04/22 07:28:45;;;;;;;15.43;3.88;;;;;;;;;;4928081;28;20501;-82
2022/04/22 07:31:11;;;;;;;2.30;0.60;;;;;;;;;;4934946;28;20123;-84
2022/04/22 07:33:37;;;;;;;1.37;1.37;;;;;;;;;;4928268;28;20046;-83
2022/04/22 07:36:03;;;;;;;0.45;0.45;;;;;;;;;;4929180;28;20318;-82
2022/04/22 07:38:29;;;;;;;1.25;1.02;;;;;;;;;;4928905;28;20055;-82
2022/04/22 07:40:56;;;;;;;0.88;0.88;;;;;;;;;;4928708;28;20118;-82
2022/04/22 07:48:53;;;;;;;1.25;1.15;;;;;;;;;;4934904;28;21317;-82
2022/04/22 07:51:19;;;;;;;0.68;0.52;;;;;;;;;;4948425;28;20444;-83
2022/04/22 07:53:46;;;;;;;0.68;0.68;;;;;;;;;;4936806;29;20047;-82
2022/04/22 07:56:12;;;;;;;0.20;0.20;;;;;;;;;;4936378;29;20043;-81
2022/04/22 07:58:38;;;;;;;0.63;0.63;;;;;;;;;;4930150;28;20047;-81
2022/04/22 08:01:04;;;;;;;1.13;1.03;;;;;;;;;;4926227;28;20364;-82
2022/04/22 08:03:31;;;;;;;1.67;1.23;;;;;;;;;;4932949;29;20071;-83
2022/04/22 08:05:57;;;;;;;2.67;1.38;;;;;;;;;;4947781;28;20274;-82
2022/04/22 08:08:24;;;;;;;0.67;0.40;;;;;;;;;;4932302;29;20775;-82
2022/04/22 08:10:50;;;;;;;0.57;0.57;;;;;;;;;;4933455;28;20031;-84
2022/04/22 08:13:16;;;;;;;0.50;0.50;;;;;;;;;;4940731;29;20046;-83
2022/04/22 08:15:42;;;;;;;1.43;1.33;;;;;;;;;;4935963;28;20604;-85
2022/04/22 08:18:08;;;;;;;4.60;1.87;;;;;;;;;;4928364;29;20069;-84
2022/04/22 08:20:35;;;;;;;1.17;1.07;;;;;;;;;;4931455;29;20047;-84
2022/04/22 08:23:02;;;;;;;1.55;1.45;;;;;;;;;;4947276;28;20303;-83
2022/04/22 08:25:28;;;;;;;0.60;0.60;;;;;;;;;;4935943;28;20035;-83
2022/04/22 08:27:54;;;;;;;3.00;1.13;;;;;;;;;;4935496;28;20039;-83
2022/04/22 08:30:20;;;;;;;1.83;1.42;;;;;;;;;;4949357;28;20032;-83
2022/04/22 08:32:46;;;;;;;0.90;0.90;;;;;;;;;;4933685;28;20050;-82
2022/04/22 08:35:12;;;;;;;0.53;0.53;;;;;;;;;;4941595;28;20279;-83
2022/04/22 08:37:38;;;;;;;1.47;1.37;;;;;;;;;;4928222;28;20047;-83
2022/04/22 08:40:08;;;;;;;0.65;0.60;;;;;;;;;;4930111;28;20037;-84
2022/04/22 08:42:35;;;;;;;1.52;1.42;;;;;;;;;;4931394;28;20035;-85
2022/04/22 08:45:02;;;;;;;1.13;0.93;;;;;;;;;;4938599;28;20519;-83
2022/04/22 08:50:16;;;;;;;1.77;1.08;;;;;;;;;;4945755;28;20034;-83
2022/04/22 08:52:42;;;;;;;1.45;1.02;;;;;;;;;;4944680;28;20038;-84
2022/04/22 08:55:09;;;;;;;1.05;1.05;;;;;;;;;;4946150;28;20157;-83
2022/04/22 08:57:35;;;;;;;1.45;0.90;;;;;;;;;;4949627;28;20588;-84
2022/04/22 09:00:01;;;;;;;1.03;0.50;;;;;;;;;;4951364;28;20062;-83
2022/04/22 09:02:28;;;;;;;;;;;;;;;;;;4948913;28;20067;-84
2022/04/22 09:04:54;;;;;;;2.85;0.90;;;;;;;;;;4942161;29;19915;-83
2022/04/22 09:07:22;;;;;;;0.73;0.73;;;;;;;;;;4929284;28;20240;-84
2022/04/22 09:09:50;;;;;;;1.42;1.15;;;;;;;;;;4932121;29;20370;-84
2022/04/22 09:12:17;;;;;;;0.40;0.40;;;;;;;;;;4942509;28;20119;-83
2022/04/22 09:14:47;;;;;;;0.85;0.85;;;;;;;;;;4951985;28;20118;-82
2022/04/22 09:17:33;;;;;;;0.38;0.38;;;;;;;;;;4945550;28;20031;-83
2022/04/22 09:20:00;;;;;;;0.57;0.57;;;;;;;;;;4930807;28;20085;-83
2022/04/22 09:22:34;;;;;;;0.63;0.63;;;;;;;;;;4936231;28;20743;-83
2022/04/22 09:25:00;;;;;;;0.22;0.22;;;;;;;;;;4940278;28;20509;-83
2022/04/22 09:27:33;;;;;;;0.77;0.77;;;;;;;;;;4929748;29;20031;-83
2022/04/22 09:30:00;;;;;;;0.43;0.43;;;;;;;;;;4936603;28;20460;-83
2022/04/22 09:32:27;;;;;;;0.93;0.93;;;;;;;;;;4953325;28;20039;-84
2022/04/22 09:34:58;;;;;;;0.20;0.20;;;;;;;;;;4952054;28;20776;-83
2022/04/22 09:42:53;;;;;;;1.08;0.98;;;;;;;;;;4931762;28;20345;-84
2022/04/22 09:45:19;;;;;;;6.72;0.80;;;;;;;;;;4940638;29;20098;-83
2022/04/22 09:47:57;;;;;;;2.27;1.43;;;;;;;;;;4942384;28;20035;-83
2022/04/22 09:50:39;;;;;;;1.05;0.82;;;;;;;;;;4932388;28;20362;-84
2022/04/22 09:53:06;;;;;;;0.38;0.32;;;;;;;;;;4928754;28;20424;-85
2022/04/22 09:55:35;;;;;;;1.58;0.70;;;;;;;;;;4934745;28;20966;-85
2022/04/22 09:58:01;;;;;;;1.10;1.00;;;;;;;;;;4935997;28;20039;-84
2022/04/22 10:00:30;;;;;;;0.00;0.00;;;;;;;;;;4936927;28;20143;-85
2022/04/22 10:02:57;;;;;;;0.60;0.50;;;;;;;;;;4934134;28;20318;-84
2022/04/22 10:05:24;;;;;;;0.22;0.22;;;;;;;;;;4934601;28;20114;-84
2022/04/22 10:07:52;;;;;;;0.43;0.32;;;;;;;;;;4943112;28;20054;-85
2022/04/22 10:10:27;;;;;;;0.68;0.68;;;;;;;;;;4940450;28;20038;-84
2022/04/22 10:12:55;;;;;;;1.98;0.82;;;;;;;;;;4942990;28;20035;-84
2022/04/22 10:15:22;;;;;;;0.30;0.30;;;;;;;;;;4938657;28;20133;-87
2022/04/22 10:17:48;;;;;;;0.77;0.77;;;;;;;;;;4942660;29;20051;-84
2022/04/22 10:20:14;;;;;;;;;;;;;;;;;;4940989;28;20298;-86
2022/04/22 10:22:41;;;;;;;0.88;0.88;;;;;;;;;;4941652;29;20288;-86
2022/04/22 10:25:09;;;;;;;0.93;0.52;;;;;;;;;;4940690;28;20035;-85
2022/04/22 10:27:36;;;;;;;1.35;1.20;;;;;;;;;;4937812;28;20509;-85
2022/04/22 10:30:03;;;;;;;2.47;0.50;;;;;;;;;;4936607;28;20039;-85
2022/04/22 10:32:30;;;;;;;;;;;;;;;;;;4956293;28;20038;-86
2022/04/22 10:34:57;;;;;;;0.63;0.55;;;;;;;;;;4941913;28;19921;-84
2022/04/22 10:37:27;;;;;;;1.17;1.00;;;;;;;;;;4937674;28;20058;-85
2022/04/22 10:39:55;;;;;;;0.40;0.40;;;;;;;;;;4934047;28;20043;-85
2022/04/22 10:42:30;;;;;;;1.48;0.40;;;;;;;;;;4938469;28;20058;-85
2022/04/22 10:47:46;;;;;;;0.55;0.55;;;;;;;;;;4937968;28;20078;-84
2022/04/22 10:50:31;;;;;;;0.63;0.63;;;;;;;;;;4935240;28;20116;-84
2022/04/22 10:53:03;;;;;;;0.55;0.55;;;;;;;;;;4936067;28;20113;-84
2022/04/22 10:55:39;;;;;;;0.80;0.80;;;;;;;;;;4954649;28;20027;-84
2022/04/22 10:58:14;;;;;;;3.03;1.73;;;;;;;;;;4938036;29;20126;-85
2022/04/22 11:00:47;;;;;;;1.30;1.23;;;;;;;;;;4936134;28;20086;-86
2022/04/22 11:03:14;;;;;;;0.68;0.68;;;;;;;;;;4941595;28;20133;-85
2022/04/22 11:05:47;;;;;;;0.70;0.50;;;;;;;;;;4944019;28;20127;-86
2022/04/22 11:08:18;;;;;;;0.68;0.68;;;;;;;;;;4940734;28;20070;-84
2022/04/22 11:10:48;;;;;;;0.98;0.95;;;;;;;;;;4940747;28;20102;-86
2022/04/22 11:13:31;;;;;;;0.32;0.30;;;;;;;;;;4936423;28;20051;-86
2022/04/22 11:16:06;;;;;;;0.35;0.35;;;;;;;;;;4943437;28;20062;-85
2022/04/22 11:18:33;;;;;;;0.50;0.50;;;;;;;;;;4940679;28;20055;-84
2022/04/22 11:21:10;;;;;;;0.80;0.57;;;;;;;;;;4935494;28;20078;-85
2022/04/22 11:23:46;;;;;;;0.50;0.50;;;;;;;;;;4937512;28;20036;-85
2022/04/22 11:26:15;;;;;;;0.77;0.60;;;;;;;;;;4944535;28;20081;-85
2022/04/22 11:28:42;;;;;;;0.60;0.60;;;;;;;;;;4942163;28;20031;-86
2022/04/22 11:31:10;;;;;;;0.30;0.30;;;;;;;;;;4944238;28;20034;-87
2022/04/22 11:33:52;;;;;;;0.60;0.30;;;;;;;;;;4940572;28;20572;-85
2022/04/22 11:36:18;;;;;;;0.50;0.50;;;;;;;;;;4944480;28;20038;-87
2022/04/22 11:38:51;;;;;;;0.73;0.70;;;;;;;;;;4947152;28;20067;-86
2022/04/22 11:41:17;;;;;;;1.30;0.77;;;;;;;;;;4943729;28;20114;-85
2022/04/22 11:43:44;;;;;;;3.80;0.90;;;;;;;;;;4943557;28;20039;-85
2022/04/22 11:46:12;;;;;;;1.00;0.93;;;;;;;;;;4941532;28;20455;-86
2022/04/22 11:48:45;;;;;;;1.13;0.85;;;;;;;;;;4942759;28;20142;-83
2022/04/22 11:51:11;;;;;;;0.95;0.95;;;;;;;;;;4944860;28;20114;-89
2022/04/22 11:53:37;;;;;;;0.70;0.70;;;;;;;;;;4939985;28;20034;-82
2022/04/22 11:56:04;;;;;;;1.75;1.10;;;;;;;;;;4945069;28;20039;-83
2022/04/22 11:58:30;;;;;;;2.55;1.05;;;;;;;;;;4943516;28;20090;-82
2022/04/22 12:06:28;;;;;;;3.20;0.93;;;;;;;;;;4935518;28;20518;-83
2022/04/22 12:08:55;;;;;;;1.60;1.30;;;;;;;;;;4938827;29;20036;-83
2022/04/22 12:11:25;;;;;;;0.10;0.10;;;;;;;;;;4937785;29;20063;-83
2022/04/22 12:13:52;;;;;;;2.72;1.73;;;;;;;;;;4936770;29;20031;-82
2022/04/22 12:16:19;;;;;;;0.52;0.52;;;;;;;;;;4941846;28;20302;-83
2022/04/22 12:18:47;;;;;;;1.33;1.25;;;;;;;;;;4942857;28;20047;-84
2022/04/22 12:21:13;;;;;;;0.75;0.70;;;;;;;;;;4941880;28;20783;-82
2022/04/22 12:23:39;;;;;;;;;;;;;;;;;;4940806;28;20031;-82
2022/04/22 12:26:06;;;;;;;1.58;1.27;;;;;;;;;;4938889;29;19929;-82
2022/04/22 12:28:32;;;;;;;;;;;;;;;;;;4944049;28;20529;-81
2022/04/22 12:30:58;;;;;;;0.63;0.63;;;;;;;;;;4933459;29;19921;-82
2022/04/22 12:33:25;;;;;;;0.45;0.45;;;;;;;;;;4943442;28;20043;-82
2022/04/22 12:36:05;;;;;;;1.17;0.95;;;;;;;;;;4949563;28;20058;-81
2022/04/22 12:38:32;;;;;;;0.88;0.88;;;;;;;;;;4943985;28;20106;-81
2022/04/22 12:40:58;;;;;;;1.42;0.90;;;;;;;;;;4949033;28;20038;-81
2022/04/22 12:43:27;;;;;;;0.82;0.80;;;;;;;;;;4950660;28;20109;-81
2022/04/22 12:54:12;;;;;;;1.48;0.68;;;;;;;;;;4959537;28;20077;-83
2022/04/22 12:56:39;;;;;;;0.50;0.50;;;;;;;;;;4948943;28;20027;-82
2022/04/22 12:59:06;;;;;;;0.68;0.68;;;;;;;;;;4948334;28;20043;-82
2022/04/22 13:01:34;;;;;;;0.32;0.32;;;;;;;;;;4948847;28;20589;-82
2022/04/22 13:04:00;;;;;;;0.52;0.52;;;;;;;;;;4946196;28;20034;-81
2022/04/22 13:06:44;;;;;;;1.02;0.82;;;;;;;;;;4947870;28;20027;-81
2022/04/22 13:09:11;;;;;;;0.40;0.40;;;;;;;;;;4959453;28;20038;-81
2022/04/22 13:11:37;;;;;;;0.85;0.82;;;;;;;;;;4948228;28;20039;-82
2022/04/22 13:14:04;;;;;;;0.43;0.43;;;;;;;;;;4948559;28;20035;-82
2022/04/22 13:16:31;;;;;;;0.50;0.50;;;;;;;;;;4947771;28;20073;-82
2022/04/22 13:18:57;;;;;;;0.70;0.70;;;;;;;;;;4943984;28;20055;-81
2022/04/22 13:21:23;;;;;;;0.30;0.30;;;;;;;;;;4962188;28;20702;-81
2022/04/22 13:23:50;;;;;;;0.30;0.30;;;;;;;;;;4948823;28;20027;-81
2022/04/22 13:26:17;;;;;;;0.40;0.40;;;;;;;;;;4947586;28;20039;-81
2022/04/22 13:28:43;;;;;;;1.60;1.20;;;;;;;;;;4947986;28;20031;-81
2022/04/22 13:31:09;;;;;;;0.30;0.30;;;;;;;;;;4947009;28;20034;-81
2022/04/22 13:33:35;;;;;;;0.60;0.60;;;;;;;;;;4944931;28;20437;-82
2022/04/22 13:36:05;;;;;;;0.68;0.68;;;;;;;;;;4945859;28;20046;-81
2022/04/22 13:38:32;;;;;;;2.65;1.13;;;;;;;;;;4943386;28;20102;-81
2022/04/22 13:40:58;;;;;;;;;;;;;;;;;;4947844;28;20019;-82
2022/04/22 13:43:30;;;;;;;0.43;0.43;;;;;;;;;;4947674;28;19920;-81
2022/04/22 13:54:11;;;;;;;0.28;0.28;;;;;;;;;;4957749;28;20085;-81
2022/04/22 13:56:37;;;;;;;0.20;0.20;;;;;;;;;;4949286;28;20042;-81
2022/04/22 13:59:03;;;;;;;0.40;0.40;;;;;;;;;;4946965;28;20047;-81
2022/04/22 14:01:29;;;;;;;0.65;0.65;;;;;;;;;;4948340;28;20062;-80
2022/04/22 14:03:55;;;;;;;0.73;0.70;;;;;;;;;;4944697;28;20040;-80
2022/04/22 14:06:22;;;;;;;2.28;0.55;;;;;;;;;;4960903;28;20041;-81
2022/04/22 14:08:49;;;;;;;0.50;0.50;;;;;;;;;;4943402;28;20031;-82
2022/04/22 14:11:15;;;;;;;0.30;0.30;;;;;;;;;;4946989;28;20417;-83
2022/04/22 14:13:41;;;;;;;0.28;0.28;;;;;;;;;;4950195;28;20027;-81
2022/04/22 14:16:07;;;;;;;0.63;0.63;;;;;;;;;;4946393;28;20038;-82
2022/04/22 14:18:35;;;;;;;0.32;0.32;;;;;;;;;;4942991;28;20651;-81
2022/04/22 14:21:01;;;;;;;1.85;0.40;;;;;;;;;;4949759;28;20062;-81
2022/04/22 14:23:28;;;;;;;1.10;0.35;;;;;;;;;;4946725;28;20035;-82
2022/04/22 14:25:54;;;;;;;2.33;0.40;;;;;;;;;;4946541;28;20032;-81
2022/04/22 14:28:22;;;;;;;0.30;0.30;;;;;;;;;;4947125;28;20035;-82
2022/04/22 14:30:48;;;;;;;0.60;0.60;;;;;;;;;;4943533;28;20688;-82
2022/04/22 14:33:14;;;;;;;0.55;0.55;;;;;;;;;;4948571;28;20082;-82
2022/04/22 14:35:40;;;;;;;0.57;0.40;;;;;;;;;;4943199;29;20177;-81
2022/04/22 14:38:06;;;;;;;0.20;0.20;;;;;;;;;;4943910;28;20118;-82
2022/04/22 14:40:33;;;;;;;0.30;0.30;;;;;;;;;;4946499;28;20035;-82
2022/04/22 14:42:59;;;;;;;0.40;0.35;;;;;;;;;;4944038;28;20114;-82
2022/04/22 14:45:27;;;;;;;0.98;0.40;;;;;;;;;;4944317;28;20036;-81
2022/04/22 14:47:56;;;;;;;0.35;0.30;;;;;;;;;;4948039;28;20028;-81
2022/04/22 14:50:23;;;;;;;1.05;0.88;;;;;;;;;;4946632;28;20519;-81
2022/04/22 14:52:49;;;;;;;1.65;0.68;;;;;;;;;;4946502;28;20042;-82
2022/04/22 14:55:15;;;;;;;0.38;0.38;;;;;;;;;;4945477;28;20034;-82
2022/04/22 14:57:42;;;;;;;0.40;0.40;;;;;;;;;;4942619;28;20042;-81
2022/04/22 15:00:08;;;;;;;3.75;1.65;;;;;;;;;;4960940;28;20066;-82
2022/04/22 15:02:35;;;;;;;0.40;0.40;;;;;;;;;;4946713;28;20556;-81
2022/04/22 15:05:01;;;;;;;0.40;0.40;;;;;;;;;;4946131;28;20547;-81
2022/04/22 15:07:29;;;;;;;0.00;0.00;;;;;;;;;;4946071;28;20030;-81
2022/04/22 15:09:55;;;;;;;0.20;0.20;;;;;;;;;;4943709;28;20035;-80
2022/04/22 15:12:22;;;;;;;0.10;0.10;;;;;;;;;;4946496;28;20042;-81
2022/04/22 15:14:49;;;;;;;0.28;0.28;;;;;;;;;;4946140;28;20031;-81
2022/04/22 15:17:15;;;;;;;;;;;;;;;;;;4946694;28;20035;-81
2022/04/22 15:25:10;;;;;;;0.10;0.10;;;;;;;;;;4946225;28;20034;-81
2022/04/22 15:27:36;;;;;;;0.13;0.13;;;;;;;;;;4944911;28;20031;-81
2022/04/22 15:30:03;;;;;;;0.10;0.10;;;;;;;;;;4960028;28;20050;-81
2022/04/22 15:32:29;;;;;;;0.30;0.30;;;;;;;;;;4947199;28;20067;-81
2022/04/22 15:34:55;;;;;;;0.53;0.37;;;;;;;;;;4948502;28;20057;-81
2022/04/22 15:37:21;;;;;;;0.30;0.13;;;;;;;;;;4943284;28;20309;-81
2022/04/22 15:39:49;;;;;;;0.03;0.03;;;;;;;;;;4942388;28;20283;-81
2022/04/22 15:42:15;;;;;;;0.25;0.25;;;;;;;;;;4948091;28;20591;-82
2022/04/22 15:44:47;;;;;;;0.10;0.10;;;;;;;;;;4946764;28;20381;-82
2022/04/22 15:47:13;;;;;;;0.40;0.40;;;;;;;;;;4945768;28;20130;-82
2022/04/22 15:49:40;;;;;;;0.05;0.05;;;;;;;;;;4947126;28;20027;-82
2022/04/22 15:52:06;;;;;;;;;;;;;;;;;;4946714;28;20042;-82
2022/04/22 15:54:32;;;;;;;0.10;0.10;;;;;;;;;;4944374;28;19918;-82
2022/04/22 15:56:58;;;;;;;0.08;0.08;;;;;;;;;;4948253;28;20074;-81
2022/04/22 15:59:24;;;;;;;0.20;0.20;;;;;;;;;;4945826;28;20050;-81
2022/04/22 16:01:51;;;;;;;0.10;0.10;;;;;;;;;;4945978;28;20034;-82
2022/04/22 16:04:18;;;;;;;0.22;0.22;;;;;;;;;;4945716;28;20667;-82